Berlin Dahlem, Germany

4:56 AM CEST on October 21, 2014 (GMT +0200)
Insulaner | Change Station
CLOSE
Current Station
Personal Weather Station
Location: Berlin, BERLIN
Elevation: 161 ft
Nearby Weather Stations

Elev 161 ft 52.45 °N, 13.35 °E | Updated 6 seconds ago

Light Rain
Light Rain
53.8 °F
Feels Like 53.8 °F
N
0.0
Wind Variable Wind from SSW
Gusts 0.0 mph

Today
High -- | Low -- °F
--% Chance of Precip.
Yesterday
High -- | Low -- °F
Precip. -- in
7:42 AM 5:59 PM
Waning Crescent, 8% visible
Pressure 29.83 in
Visibility 6.2 miles
Clouds Few 800 ft
Scattered Clouds 2300 ft
Mostly Cloudy 4400 ft
Dew Point 52 °F
Humidity 95%
Rainfall 0.04 in
Snow Depth Not available.
UV 0.0 out of 12
Pollen Not available.
Air Quality Not available.
Flu Activity Not available.
METAR EDDT 210250Z 21007KT 9999 -RA FEW008 SCT023 BKN044 12/10 Q1010 NOSIG

More Conditions Fewer Conditions

Pressure 29.83 in
Visibility 6.2 miles
Clouds Few 800 ft
Scattered Clouds 2300 ft
Mostly Cloudy 4400 ft
Dew Point 52 °F
Humidity 95%
Rainfall 0.04 in
Snow Depth Not available.
UV 0.0 out of 12
Pollen Not available.
Air Quality Not available.
Flu Activity Not available.
METAR EDDT 210250Z 21007KT 9999 -RA FEW008 SCT023 BKN044 12/10 Q1010 NOSIG

More Conditions Fewer Conditions

10-Day Weather Forecast

Almanac

Astronomy

Oct. 21, 2014 Rise Set
Actual Time 7:42 AM CEST 5:59 PM CEST
Civil Twilight 7:07 AM CEST 6:34 PM CEST
Nautical Twilight 6:27 AM CEST 7:13 PM CEST
Astronomical Twilight 5:48 AM CEST 7:53 PM CEST
Moon 4:52 AM CEST 4:59 PM CEST
Length of Visible Light 11h 26m
Length of Day
10h 16m
Tomorrow will be 3m 54s shorter.
Waning Crescent, 8% of the Moon is Illuminated
Oct 20
Waning Crescent
Oct 23
New
Oct 30
First Quarter
Nov 6
Full
Nov 14
Last Quarter

Yesterday's Extremes

Country Highs Country Lows

Community

WunderPhotos

Upload Photos

1,763,580 photos uploaded!

Nearby

Snow Depth

Not available.

Earthquake Activity

City Distance Mag. Time & Date
No recent earthquake activity has been reported nearby.
Minimum magnitude displayed is 2.5.

Coastal Water Temperatures

Place Temperature
No Stations Reporting

Nearby Weather Stations